Time;durP1;ratioP1;P1;durP2;ratioP2;P2;SDS_P1;SDS_P2;PMS_P1;PMS_P2;Temp;Humidity;BMP_temperature;BMP_pressure;BME280_temperature;BME280_humidity;BME280_pressure;Samples;Min_cycle;Max_cycle;Signal;HPM_P1;HPM_P2
2021/06/02 00:00:33;;;;;;;11.77;5.40;;;358.90;2252.80;;;;;;5071571;28;20025;-76
2021/06/02 00:03:02;;;;;;;9.50;5.63;;;358.80;2252.80;;;;;;5077318;28;20036;-77
2021/06/02 00:05:29;;;;;;;10.32;4.68;;;358.80;2252.80;;;;;;5086974;28;20377;-77
2021/06/02 00:07:57;;;;;;;7.68;3.75;;;358.80;2252.80;;;;;;5091304;28;20063;-77
2021/06/02 00:10:23;;;;;;;7.72;4.70;;;358.70;2252.80;;;;;;5091105;28;20024;-77
2021/06/02 00:12:49;;;;;;;8.80;4.95;;;358.70;2252.80;;;;;;5075563;28;20028;-77
2021/06/02 00:15:15;;;;;;;8.88;4.43;;;358.70;2278.40;;;;;;5081461;28;20025;-78
2021/06/02 00:17:41;;;;;;;8.20;4.75;;;358.70;2252.80;;;;;;5074293;28;20031;-77
2021/06/02 00:20:08;;;;;;;5.60;3.97;;;358.60;2278.40;;;;;;5088501;28;20103;-77
2021/06/02 00:22:34;;;;;;;9.65;4.95;;;358.60;2278.40;;;;;;5088458;28;20028;-78
2021/06/02 00:25:00;;;;;;;8.40;4.75;;;358.60;2278.40;;;;;;5094264;28;20073;-78
2021/06/02 00:27:28;;;;;;;6.53;4.68;;;358.60;2304.00;;;;;;5094310;28;20036;-78
2021/06/02 00:29:54;;;;;;;7.57;4.45;;;358.40;2304.00;;;;;;5093301;28;20362;-78
2021/06/02 00:32:22;;;;;;;10.80;3.95;;;358.40;2304.00;;;;;;5095456;28;20034;-78
2021/06/02 00:34:48;;;;;;;11.48;5.80;;;358.40;2329.60;;;;;;5093864;28;20031;-78
2021/06/02 00:37:14;;;;;;;4.85;4.18;;;358.40;2329.60;;;;;;5093159;28;20020;-78
2021/06/02 00:39:46;;;;;;;9.02;4.53;;;333.70;2329.60;;;;;;5093032;28;20081;-77
2021/06/02 00:42:12;;;;;;;7.90;4.63;;;333.60;2329.60;;;;;;5094078;28;20548;-76
2021/06/02 00:44:39;;;;;;;8.50;4.72;;;333.60;2329.60;;;;;;5094889;28;20035;-76
2021/06/02 00:47:04;;;;;;;7.72;4.70;;;333.50;2329.60;;;;;;5093372;28;20032;-77
2021/06/02 00:49:30;;;;;;;14.30;5.78;;;333.40;2329.60;;;;;;5094464;28;20020;-77
2021/06/02 00:51:58;;;;;;;7.45;4.97;;;333.40;2329.60;;;;;;5092363;28;20039;-76
2021/06/02 00:54:26;;;;;;;6.97;4.40;;;333.30;2329.60;;;;;;5093987;28;20028;-77
2021/06/02 00:56:55;;;;;;;7.90;4.90;;;333.30;2329.60;;;;;;5094781;28;20109;-77
2021/06/02 00:59:41;;;;;;;7.30;5.05;;;333.20;2329.60;;;;;;5093140;28;20032;-77
2021/06/02 01:02:16;;;;;;;15.47;5.10;;;333.20;2329.60;;;;;;5093380;28;20024;-76
2021/06/02 01:04:43;;;;;;;9.48;5.68;;;333.20;2329.60;;;;;;5082399;28;20111;-76
2021/06/02 01:07:11;;;;;;;8.07;5.13;;;333.10;2329.60;;;;;;5082390;28;20183;-76
2021/06/02 01:09:44;;;;;;;8.25;4.50;;;333.00;2329.60;;;;;;5092390;28;20091;-76
2021/06/02 01:12:13;;;;;;;8.15;4.20;;;333.00;2329.60;;;;;;5093350;28;20107;-76
2021/06/02 01:14:39;;;;;;;8.55;4.63;;;333.00;2329.60;;;;;;5092980;28;20016;-76
2021/06/02 01:17:05;;;;;;;6.85;4.63;;;333.00;2329.60;;;;;;5093026;28;20419;-76
2021/06/02 01:19:31;;;;;;;13.05;4.93;;;333.00;2329.60;;;;;;5094456;28;20020;-75
2021/06/02 01:22:01;;;;;;;12.75;5.60;;;333.00;2329.60;;;;;;5086688;28;20025;-75
2021/06/02 01:24:29;;;;;;;6.00;4.55;;;333.00;2329.60;;;;;;5093223;28;20093;-75
2021/06/02 01:26:58;;;;;;;7.63;4.80;;;333.00;2329.60;;;;;;5083486;28;20020;-76
2021/06/02 01:29:25;;;;;;;13.75;5.57;;;333.00;2329.60;;;;;;5083254;28;20025;-77
2021/06/02 01:32:28;;;;;;;8.05;4.90;;;333.00;2329.60;;;;;;5094234;28;20023;-77
2021/06/02 01:35:00;;;;;;;7.00;4.82;;;332.90;2329.60;;;;;;5088425;28;20031;-76
2021/06/02 01:37:57;;;;;;;6.45;4.78;;;333.00;2329.60;;;;;;5086664;28;20031;-77
2021/06/02 01:40:47;;;;;;;7.93;4.60;;;332.90;2329.60;;;;;;5031804;28;20045;-77
2021/06/02 01:43:46;;;;;;;13.88;5.80;;;332.90;2329.60;;;;;;5032046;28;20038;-77
2021/06/02 01:46:48;;;;;;;9.88;5.18;;;332.80;2329.60;;;;;;5015031;28;20041;-77
2021/06/02 01:49:35;;;;;;;8.05;5.70;;;332.90;2329.60;;;;;;5039479;28;20125;-78
2021/06/02 01:52:22;;;;;;;12.10;5.07;;;332.80;2329.60;;;;;;5048133;28;20034;-77
2021/06/02 01:55:24;;;;;;;8.35;4.80;;;332.90;2329.60;;;;;;5031753;28;20029;-78
2021/06/02 01:57:50;;;;;;;8.70;4.90;;;332.80;2329.60;;;;;;5040839;28;20034;-78
2021/06/02 02:00:52;;;;;;;7.47;5.35;;;332.90;2329.60;;;;;;5031242;28;20387;-77
2021/06/02 02:03:42;;;;;;;9.15;6.13;;;332.90;2329.60;;;;;;5014421;28;20498;-77
2021/06/02 02:06:16;;;;;;;8.45;5.28;;;332.90;2329.60;;;;;;5014633;28;20049;-78
2021/06/02 02:09:03;;;;;;;7.72;5.18;;;332.80;2329.60;;;;;;5031408;28;20030;-77
2021/06/02 02:11:29;;;;;;;8.52;5.93;;;332.80;2329.60;;;;;;5031245;28;20446;-77
2021/06/02 02:13:58;;;;;;;8.85;5.35;;;332.80;2329.60;;;;;;5031341;28;20061;-78
2021/06/02 02:16:53;;;;;;;8.35;5.20;;;332.80;2329.60;;;;;;5053045;28;20034;-78
2021/06/02 02:19:37;;;;;;;8.38;6.00;;;308.10;2304.00;;;;;;5077605;28;20025;-77
2021/06/02 02:22:24;;;;;;;7.32;5.43;;;308.00;2304.00;;;;;;5084245;28;20036;-77
2021/06/02 02:25:02;;;;;;;7.30;5.68;;;308.00;2304.00;;;;;;5072916;28;20021;-76
2021/06/02 02:27:46;;;;;;;9.35;5.85;;;308.00;2304.00;;;;;;5083301;28;20373;-76
2021/06/02 02:30:30;;;;;;;10.98;5.50;;;308.00;2304.00;;;;;;5093101;28;20016;-77
2021/06/02 02:33:14;;;;;;;8.85;6.57;;;308.00;2304.00;;;;;;5092380;28;20074;-77
2021/06/02 02:36:03;;;;;;;12.77;7.30;;;308.00;2304.00;;;;;;5072082;28;20028;-76
2021/06/02 02:38:31;;;;;;;12.93;8.07;;;307.90;2304.00;;;;;;5085983;28;20017;-77
2021/06/02 02:41:34;;;;;;;12.40;7.85;;;307.90;2304.00;;;;;;5091096;28;20024;-76
2021/06/02 02:44:20;;;;;;;13.43;8.52;;;307.90;2304.00;;;;;;5090436;28;20058;-76
2021/06/02 02:47:01;;;;;;;10.40;7.97;;;307.80;2304.00;;;;;;5089469;28;20028;-76
2021/06/02 02:49:51;;;;;;;11.18;8.32;;;307.90;2304.00;;;;;;5071514;28;20063;-76
2021/06/02 02:52:30;;;;;;;10.95;7.43;;;307.80;2304.00;;;;;;5076867;28;20369;-76
2021/06/02 02:55:26;;;;;;;11.75;7.95;;;307.80;2304.00;;;;;;5076901;28;20033;-76
2021/06/02 02:58:23;;;;;;;13.88;8.00;;;307.80;2304.00;;;;;;5071538;28;20024;-76
2021/06/02 03:01:13;;;;;;;9.65;6.80;;;307.80;2304.00;;;;;;5076882;28;20032;-76
2021/06/02 03:03:56;;;;;;;13.73;7.95;;;307.80;2304.00;;;;;;5092456;28;20020;-76
2021/06/02 03:06:32;;;;;;;14.93;8.18;;;307.80;2304.00;;;;;;5085325;28;20116;-78
2021/06/02 03:09:25;;;;;;;12.90;8.05;;;307.70;2304.00;;;;;;5090750;28;20084;-77
2021/06/02 03:12:02;;;;;;;20.58;9.48;;;307.70;2304.00;;;;;;5081195;28;20023;-77
2021/06/02 03:15:09;;;;;;;8.25;6.05;;;307.70;2304.00;;;;;;5074584;28;20020;-77
2021/06/02 03:17:40;;;;;;;9.70;6.18;;;307.80;2304.00;;;;;;5064032;28;20081;-77
2021/06/02 03:20:24;;;;;;;7.65;5.55;;;307.80;2304.00;;;;;;5053206;28;20037;-77
2021/06/02 03:22:53;;;;;;;8.65;6.53;;;307.90;2304.00;;;;;;5053305;28;20102;-76
2021/06/02 03:25:37;;;;;;;10.07;6.35;;;307.90;2304.00;;;;;;5052854;28;20531;-76
2021/06/02 03:28:37;;;;;;;8.55;6.35;;;307.90;2304.00;;;;;;5069663;28;20120;-76
2021/06/02 03:31:26;;;;;;;15.25;5.60;;;307.90;2304.00;;;;;;5064095;28;20103;-76
2021/06/02 03:34:21;;;;;;;10.07;6.00;;;308.00;2304.00;;;;;;5067198;28;20025;-77
2021/06/02 03:37:16;;;;;;;8.57;5.60;;;308.00;2304.00;;;;;;5068730;28;20417;-76
2021/06/02 03:40:05;;;;;;;7.35;4.93;;;308.10;2304.00;;;;;;5068206;28;20533;-76
2021/06/02 03:42:49;;;;;;;11.40;5.60;;;308.10;2304.00;;;;;;5069499;28;20185;-77
2021/06/02 03:45:45;;;;;;;12.70;7.32;;;332.80;2329.60;;;;;;5052626;28;20086;-76
2021/06/02 03:48:16;;;;;;;13.75;6.20;;;332.80;2329.60;;;;;;5053274;28;20052;-77
2021/06/02 03:51:02;;;;;;;7.85;5.63;;;332.90;2329.60;;;;;;5053397;28;20040;-77
2021/06/02 03:54:09;;;;;;;8.57;5.82;;;332.90;2329.60;;;;;;5089409;28;20027;-78
2021/06/02 03:56:37;;;;;;;9.27;5.20;;;333.00;2329.60;;;;;;5010648;28;20546;-77
2021/06/02 03:59:24;;;;;;;8.85;6.15;;;333.10;2329.60;;;;;;4997476;28;20546;-76
2021/06/02 04:01:57;;;;;;;11.68;6.03;;;333.20;2329.60;;;;;;5003141;28;20054;-76
2021/06/02 04:04:40;;;;;;;10.27;6.30;;;333.30;2329.60;;;;;;5010917;28;20042;-77
2021/06/02 04:07:27;;;;;;;14.38;7.70;;;333.30;2329.60;;;;;;4993529;28;20154;-77
2021/06/02 04:10:21;;;;;;;24.70;8.65;;;333.50;2329.60;;;;;;5000972;28;20246;-76
2021/06/02 04:13:22;;;;;;;13.40;8.25;;;333.60;2329.60;;;;;;5008550;28;20023;-76
2021/06/02 04:15:49;;;;;;;9.40;6.90;;;333.70;2329.60;;;;;;4958054;28;20039;-76
2021/06/02 04:18:19;;;;;;;11.40;6.78;;;358.40;2329.60;;;;;;4954964;29;20879;-77
2021/06/02 04:20:46;;;;;;;10.70;8.07;;;358.40;2329.60;;;;;;4954965;29;20067;-76
2021/06/02 04:23:15;;;;;;;8.48;6.30;;;358.60;2329.60;;;;;;4938607;28;20036;-76
2021/06/02 04:25:43;;;;;;;14.93;5.95;;;358.70;2329.60;;;;;;4955210;29;20128;-77
2021/06/02 04:28:12;;;;;;;10.18;5.68;;;358.90;2329.60;;;;;;4954875;28;20050;-77
2021/06/02 04:30:47;;;;;;;10.10;5.85;;;358.90;2329.60;;;;;;5000334;28;20513;-77
2021/06/02 04:33:16;;;;;;;7.82;5.18;;;359.10;2329.60;;;;;;5013553;28;20540;-77
2021/06/02 04:35:49;;;;;;;8.70;5.78;;;359.10;2329.60;;;;;;5016211;28;20059;-77
2021/06/02 04:38:20;;;;;;;10.70;5.95;;;359.10;2329.60;;;;;;5033313;28;20060;-77
2021/06/02 04:40:46;;;;;;;11.48;5.32;;;359.30;2329.60;;;;;;5016289;28;20136;-77
2021/06/02 04:43:13;;;;;;;13.65;6.40;;;384.00;2329.60;;;;;;5015563;28;20025;-77
2021/06/02 04:45:53;;;;;;;10.07;6.18;;;384.10;2329.60;;;;;;5006508;28;20121;-77
2021/06/02 04:48:18;;;;;;;10.02;6.47;;;384.20;2329.60;;;;;;5011452;28;20033;-77
2021/06/02 04:50:54;;;;;;;13.63;5.43;;;384.50;2304.00;;;;;;5015925;28;20025;-78
2021/06/02 04:53:32;;;;;;;9.80;5.43;;;384.80;2278.40;;;;;;5066011;28;20122;-77
2021/06/02 04:56:19;;;;;;;8.43;5.85;;;409.60;2278.40;;;;;;5093870;28;20028;-78
2021/06/02 04:59:09;;;;;;;9.43;5.55;;;409.70;2278.40;;;;;;5093914;28;20028;-77
2021/06/02 05:02:07;;;;;;;8.77;5.63;;;409.90;2278.40;;;;;;5089483;28;20032;-77
2021/06/02 05:05:09;;;;;;;8.02;5.72;;;409.90;2278.40;;;;;;5075749;28;20024;-77
2021/06/02 05:08:12;;;;;;;10.73;6.40;;;410.00;2278.40;;;;;;5088965;28;20051;-78
2021/06/02 05:11:20;;;;;;;14.32;7.32;;;410.30;2227.20;;;;;;5081728;28;20028;-77
2021/06/02 05:13:49;;;;;;;8.18;6.45;;;410.30;2227.20;;;;;;5092118;28;20052;-76
2021/06/02 05:16:52;;;;;;;11.65;6.28;;;435.20;2201.60;;;;;;5093740;28;20544;-77
2021/06/02 05:20:00;;;;;;;11.95;6.13;;;435.40;2201.60;;;;;;5094817;28;20030;-78
2021/06/02 05:22:32;;;;;;;8.48;5.38;;;435.70;2176.00;;;;;;5093481;28;20479;-79
2021/06/02 05:25:13;;;;;;;16.08;6.15;;;435.70;2176.00;;;;;;5085374;28;20028;-78
2021/06/02 05:28:12;;;;;;;10.43;6.00;;;435.90;2150.40;;;;;;5085852;28;20031;-78
2021/06/02 05:31:10;;;;;;;8.95;4.85;;;436.00;2124.80;;;;;;5090643;28;20058;-79
2021/06/02 05:34:11;;;;;;;8.23;5.97;;;460.80;2124.80;;;;;;5089844;28;20036;-77
2021/06/02 05:36:58;;;;;;;9.65;5.30;;;461.00;2124.80;;;;;;5084842;28;20040;-79
2021/06/02 05:39:45;;;;;;;8.85;5.60;;;461.30;2099.20;;;;;;5091381;28;20044;-78
2021/06/02 05:42:20;;;;;;;11.55;5.57;;;461.10;2124.80;;;;;;5084821;28;20031;-78
2021/06/02 05:45:17;;;;;;;12.48;6.35;;;461.50;2099.20;;;;;;5090815;28;20093;-78
2021/06/02 05:48:23;;;;;;;8.90;6.00;;;461.70;2073.60;;;;;;5085039;28;20416;-78
2021/06/02 05:51:17;;;;;;;11.30;6.22;;;486.50;2048.00;;;;;;5088254;28;20036;-78
2021/06/02 05:54:09;;;;;;;11.77;6.55;;;486.90;1996.80;;;;;;5087115;28;20107;-78
2021/06/02 05:56:37;;;;;;;11.70;5.43;;;487.00;1971.20;;;;;;5084469;28;20100;-78
2021/06/02 05:59:05;;;;;;;6.18;5.05;;;487.00;1996.80;;;;;;5087828;28;20023;-78
2021/06/02 06:01:50;;;;;;;6.55;5.60;;;512.00;1971.20;;;;;;5081493;28;20024;-78
2021/06/02 06:04:21;;;;;;;9.73;5.70;;;512.20;1920.00;;;;;;5088810;28;20024;-78
2021/06/02 06:07:08;;;;;;;6.53;5.25;;;512.30;1920.00;;;;;;5082702;28;20044;-78
2021/06/02 06:10:06;;;;;;;7.45;6.03;;;512.30;1920.00;;;;;;5083098;28;20112;-78
2021/06/02 06:12:46;;;;;;;10.93;6.65;;;512.60;1894.40;;;;;;5085617;28;20507;-78
2021/06/02 06:15:49;;;;;;;10.23;6.32;;;512.90;1894.40;;;;;;5081276;28;20510;-78
2021/06/02 06:18:15;;;;;;;7.60;5.63;;;512.60;1894.40;;;;;;5084678;28;20066;-78
2021/06/02 06:21:13;;;;;;;8.07;6.18;;;512.90;1868.80;;;;;;5089388;28;20101;-78
2021/06/02 06:24:31;;;;;;;8.70;5.63;;;537.60;1894.40;;;;;;5084457;28;20017;-76
2021/06/02 06:27:01;;;;;;;10.38;6.20;;;537.80;1868.80;;;;;;5007774;28;20073;-79
2021/06/02 06:29:58;;;;;;;7.57;5.30;;;537.70;1894.40;;;;;;4994032;28;20371;-79
2021/06/02 06:32:26;;;;;;;7.60;5.70;;;537.90;1868.80;;;;;;4991225;28;20030;-79
2021/06/02 06:34:53;;;;;;;10.02;6.40;;;538.10;1843.20;;;;;;4993747;28;20113;-78
2021/06/02 06:37:19;;;;;;;9.32;6.70;;;538.30;1843.20;;;;;;4993697;28;20038;-79
2021/06/02 06:39:52;;;;;;;10.98;5.75;;;538.50;1843.20;;;;;;4993261;28;20042;-78
2021/06/02 06:42:24;;;;;;;8.95;6.60;;;563.20;1843.20;;;;;;5010278;28;20042;-78
2021/06/02 06:44:54;;;;;;;8.68;5.40;;;563.20;1843.20;;;;;;5013025;28;20069;-79
2021/06/02 06:47:22;;;;;;;8.48;5.85;;;563.50;1792.00;;;;;;4993711;28;20033;-79
2021/06/02 06:49:54;;;;;;;7.03;5.72;;;563.60;1792.00;;;;;;5007598;28;20048;-78
2021/06/02 06:52:28;;;;;;;12.07;5.35;;;563.60;1792.00;;;;;;4994276;28;20026;-79
2021/06/02 06:54:57;;;;;;;10.00;5.10;;;563.80;1740.80;;;;;;4993748;28;20510;-80
2021/06/02 06:57:23;;;;;;;6.40;4.47;;;563.70;1715.20;;;;;;4992027;28;20043;-78
2021/06/02 06:59:50;;;;;;;5.65;4.00;;;563.70;1740.80;;;;;;5008914;28;20030;-79
2021/06/02 07:02:17;;;;;;;8.70;5.25;;;563.80;1766.40;;;;;;5044187;28;20062;-79
2021/06/02 07:04:44;;;;;;;6.85;3.97;;;564.00;1740.80;;;;;;5084047;28;20057;-79
2021/06/02 07:07:10;;;;;;;6.80;3.80;;;564.00;1715.20;;;;;;5080480;28;20039;-78
2021/06/02 07:09:38;;;;;;;5.55;4.57;;;564.10;1715.20;;;;;;5086942;28;20028;-78
2021/06/02 07:12:05;;;;;;;6.20;4.25;;;588.90;1689.60;;;;;;5079296;28;20042;-78
2021/06/02 07:14:35;;;;;;;7.82;4.53;;;588.80;1689.60;;;;;;5085486;28;20497;-79
2021/06/02 07:17:05;;;;;;;7.05;4.10;;;588.80;1689.60;;;;;;5091331;28;20032;-79
2021/06/02 07:19:32;;;;;;;6.38;4.15;;;588.90;1664.00;;;;;;5090980;28;20039;-78
2021/06/02 07:22:01;;;;;;;8.45;4.82;;;589.00;1638.40;;;;;;5083911;28;20071;-78
2021/06/02 07:24:29;;;;;;;5.55;4.15;;;589.20;1638.40;;;;;;5083877;28;20047;-79
2021/06/02 07:26:55;;;;;;;5.30;3.58;;;589.30;1612.80;;;;;;5082434;28;20738;-79
2021/06/02 07:29:22;;;;;;;5.18;4.30;;;589.40;1638.40;;;;;;5085662;28;20035;-79
2021/06/02 07:31:47;;;;;;;6.78;4.15;;;589.40;1612.80;;;;;;5084069;28;20035;-79
2021/06/02 07:34:13;;;;;;;7.53;3.20;;;589.50;1587.20;;;;;;5082855;28;20024;-79
2021/06/02 07:36:39;;;;;;;9.50;4.03;;;589.70;1612.80;;;;;;5088694;28;20027;-79
2021/06/02 07:39:05;;;;;;;6.22;3.22;;;589.70;1561.60;;;;;;5088021;28;20031;-79
2021/06/02 07:41:31;;;;;;;8.23;3.83;;;614.40;1536.00;;;;;;5082355;28;20025;-78
2021/06/02 07:43:57;;;;;;;5.55;3.15;;;614.60;1536.00;;;;;;5085253;28;20539;-79
2021/06/02 07:46:23;;;;;;;5.88;3.58;;;614.50;1510.40;;;;;;5083683;28;20032;-79
2021/06/02 07:48:51;;;;;;;8.57;3.70;;;614.60;1536.00;;;;;;5087162;28;20523;-79
2021/06/02 07:51:17;;;;;;;7.88;3.08;;;614.70;1459.20;;;;;;5086343;28;20040;-79
2021/06/02 07:53:42;;;;;;;5.18;2.83;;;614.80;1459.20;;;;;;5086775;28;20558;-79
2021/06/02 07:56:08;;;;;;;6.43;3.85;;;615.00;1459.20;;;;;;5080685;28;20127;-78
2021/06/02 07:58:34;;;;;;;6.13;3.03;;;615.00;1459.20;;;;;;5084909;28;20062;-79
2021/06/02 08:01:00;;;;;;;4.85;2.55;;;615.00;1382.40;;;;;;5082062;28;20105;-78
2021/06/02 08:03:25;;;;;;;4.60;3.35;;;615.10;1408.00;;;;;;5077105;28;20847;-79
2021/06/02 08:05:51;;;;;;;5.82;2.80;;;615.20;1382.40;;;;;;5081543;28;20627;-78
2021/06/02 08:08:17;;;;;;;4.30;3.20;;;615.00;1356.80;;;;;;5077061;28;20043;-77
2021/06/02 08:10:43;;;;;;;6.47;3.67;;;614.90;1382.40;;;;;;5077111;28;20048;-78
2021/06/02 08:13:09;;;;;;;4.25;3.45;;;615.30;1382.40;;;;;;5085900;28;20022;-77
2021/06/02 08:15:35;;;;;;;7.00;4.18;;;640.10;1305.60;;;;;;5086998;28;20119;-79
2021/06/02 08:18:02;;;;;;;7.32;4.22;;;640.00;1305.60;;;;;;5079792;28;20729;-78
2021/06/02 08:20:28;;;;;;;3.88;3.35;;;640.10;1254.40;;;;;;5083652;28;20115;-78
2021/06/02 08:22:54;;;;;;;5.63;3.40;;;640.40;1254.40;;;;;;5079519;28;20100;-81
2021/06/02 08:25:19;;;;;;;7.50;4.65;;;640.70;1152.00;;;;;;5087596;28;20111;-79
2021/06/02 08:27:46;;;;;;;3.53;2.60;;;640.80;1152.00;;;;;;5081515;28;20021;-79
2021/06/02 08:30:13;;;;;;;6.18;3.80;;;665.70;1177.60;;;;;;5080910;28;20411;-78
2021/06/02 08:32:40;;;;;;;4.35;3.15;;;640.80;1177.60;;;;;;5080322;28;20020;-79
2021/06/02 08:35:08;;;;;;;6.50;3.10;;;640.60;1152.00;;;;;;5080525;28;20059;-80
2021/06/02 08:37:34;;;;;;;5.63;3.53;;;640.80;1152.00;;;;;;5080430;28;20039;-79
2021/06/02 08:40:00;;;;;;;5.57;2.95;;;665.80;1100.80;;;;;;5079081;28;20039;-80
2021/06/02 08:42:26;;;;;;;4.53;2.65;;;665.70;1126.40;;;;;;5088139;28;20393;-80
2021/06/02 08:44:53;;;;;;;3.33;2.22;;;640.20;1075.20;;;;;;5089225;28;20498;-79
2021/06/02 08:47:19;;;;;;;5.47;2.53;;;615.10;1024.00;;;;;;5093683;28;20065;-80
2021/06/02 08:49:45;;;;;;;5.93;2.92;;;614.90;1075.20;;;;;;5084593;28;20501;-80
2021/06/02 08:52:11;;;;;;;6.63;3.05;;;615.20;1126.40;;;;;;5093721;28;20089;-80
2021/06/02 08:54:36;;;;;;;5.15;2.72;;;640.00;1100.80;;;;;;5081926;28;20036;-80
2021/06/02 08:57:08;;;;;;;4.55;2.22;;;615.00;1152.00;;;;;;5091188;28;20064;-80
2021/06/02 08:59:35;;;;;;;5.53;2.72;;;614.70;1100.80;;;;;;5091709;28;20024;-80
2021/06/02 09:02:02;;;;;;;3.95;2.42;;;589.70;1075.20;;;;;;5084517;28;20028;-80
2021/06/02 09:04:28;;;;;;;4.43;2.20;;;589.40;1100.80;;;;;;5083917;28;20047;-79
2021/06/02 09:06:55;;;;;;;3.80;2.28;;;614.80;1049.60;;;;;;5082666;28;20132;-79
2021/06/02 09:09:23;;;;;;;4.63;2.38;;;640.70;1024.00;;;;;;5082270;28;20051;-80
2021/06/02 09:11:52;;;;;;;4.82;2.58;;;665.90;1049.60;;;;;;5085175;28;20061;-80
2021/06/02 09:14:36;;;;;;;4.45;3.00;;;640.60;1024.00;;;;;;5087216;28;20036;-79
2021/06/02 09:17:11;;;;;;;3.33;1.98;;;665.60;1024.00;;;;;;5084810;28;20151;-80
2021/06/02 09:19:47;;;;;;;3.95;3.50;;;691.20;947.20;;;;;;5088497;28;20075;-81
2021/06/02 09:22:14;;;;;;;8.65;2.70;;;691.50;947.20;;;;;;5084396;28;20027;-80
2021/06/02 09:25:03;;;;;;;4.70;2.50;;;692.00;896.00;;;;;;5089309;28;20025;-80
2021/06/02 09:27:53;;;;;;;4.68;2.60;;;716.90;921.60;;;;;;5090695;28;20030;-80
2021/06/02 09:30:31;;;;;;;5.63;2.67;;;666.30;972.80;;;;;;5089412;28;20051;-80
2021/06/02 09:33:00;;;;;;;8.07;2.42;;;666.30;1024.00;;;;;;5087849;28;20045;-80
2021/06/02 09:35:43;;;;;;;4.85;2.47;;;691.80;972.80;;;;;;5091177;28;20119;-80
2021/06/02 09:38:24;;;;;;;5.72;3.17;;;717.10;947.20;;;;;;5095820;28;20403;-78
2021/06/02 09:40:57;;;;;;;4.78;2.42;;;717.10;896.00;;;;;;5115522;28;20024;-78
2021/06/02 09:43:30;;;;;;;5.75;2.80;;;717.30;921.60;;;;;;5130294;28;20020;-80
2021/06/02 09:46:09;;;;;;;7.28;3.17;;;743.00;896.00;;;;;;5112966;28;20028;-80
2021/06/02 09:48:47;;;;;;;10.65;2.40;;;768.10;844.80;;;;;;5114864;28;20004;-80
2021/06/02 09:51:34;;;;;;;3.53;2.60;;;768.20;819.20;;;;;;5113267;28;20020;-80
2021/06/02 09:54:01;;;;;;;6.25;2.72;;;717.60;896.00;;;;;;5100299;28;20021;-80
2021/06/02 09:56:41;;;;;;;6.78;2.30;;;716.80;921.60;;;;;;5077393;28;20047;-80
2021/06/02 09:59:09;;;;;;;9.35;2.50;;;691.40;947.20;;;;;;5082914;28;20028;-80
2021/06/02 10:01:51;;;;;;;7.85;3.90;;;691.20;947.20;;;;;;5085007;28;20025;-80
2021/06/02 10:04:18;;;;;;;4.40;2.58;;;691.80;972.80;;;;;;5091881;28;20016;-79
2021/06/02 10:06:45;;;;;;;6.60;2.70;;;716.90;972.80;;;;;;5084879;28;20052;-80
2021/06/02 10:09:11;;;;;;;4.40;2.50;;;717.10;921.60;;;;;;5082279;28;20163;-80
2021/06/02 10:11:37;;;;;;;10.63;2.80;;;742.70;921.60;;;;;;5091629;28;20063;-80
2021/06/02 10:14:10;;;;;;;13.05;4.35;;;743.00;921.60;;;;;;5090879;28;20039;-80
2021/06/02 10:16:41;;;;;;;7.13;3.55;;;743.00;921.60;;;;;;5091901;28;20031;-80
2021/06/02 10:19:07;;;;;;;6.03;2.92;;;768.10;896.00;;;;;;5085328;28;20028;-78
2021/06/02 10:21:52;;;;;;;4.47;3.60;;;768.60;844.80;;;;;;5076405;28;20025;-78
2021/06/02 10:24:19;;;;;;;3.00;2.20;;;768.00;896.00;;;;;;5082790;28;20032;-79
2021/06/02 10:26:47;;;;;;;2.92;2.20;;;742.70;921.60;;;;;;5086961;28;20039;-79
2021/06/02 10:29:13;;;;;;;4.35;3.30;;;717.20;947.20;;;;;;5084197;28;20024;-79
2021/06/02 10:31:39;;;;;;;4.75;2.60;;;691.70;998.40;;;;;;5081226;28;20933;-79
2021/06/02 10:34:04;;;;;;;6.82;2.83;;;666.50;1049.60;;;;;;5082293;28;20111;-79
2021/06/02 10:36:30;;;;;;;5.40;2.75;;;666.10;1075.20;;;;;;5083609;28;20519;-78
2021/06/02 10:38:59;;;;;;;3.55;2.42;;;665.90;1049.60;;;;;;5084282;28;20080;-81
2021/06/02 10:41:38;;;;;;;7.63;2.85;;;665.80;1075.20;;;;;;5088637;28;20052;-77
2021/06/02 10:44:10;;;;;;;5.65;3.50;;;666.00;1024.00;;;;;;5090707;28;20024;-78
2021/06/02 10:46:43;;;;;;;4.10;2.38;;;691.30;972.80;;;;;;5087031;28;20036;-78
2021/06/02 10:49:09;;;;;;;4.70;2.58;;;691.20;947.20;;;;;;5089492;28;20073;-78
2021/06/02 10:51:36;;;;;;;3.40;2.53;;;665.90;947.20;;;;;;5087346;28;20024;-78
2021/06/02 10:54:07;;;;;;;8.27;3.05;;;666.50;947.20;;;;;;5090780;28;20404;-79
2021/06/02 10:56:35;;;;;;;4.93;2.40;;;717.50;896.00;;;;;;5083010;28;20024;-78
2021/06/02 10:59:01;;;;;;;3.30;2.25;;;743.00;896.00;;;;;;5084448;28;20758;-79
2021/06/02 11:01:30;;;;;;;4.82;2.38;;;768.40;870.40;;;;;;5078895;28;20696;-78
2021/06/02 11:04:11;;;;;;;3.28;2.17;;;743.30;896.00;;;;;;5086418;28;20056;-79
2021/06/02 11:06:41;;;;;;;3.33;2.17;;;717.70;896.00;;;;;;5082901;28;20492;-79
2021/06/02 11:09:08;;;;;;;5.53;3.20;;;716.90;921.60;;;;;;5083802;28;20028;-78
2021/06/02 11:11:38;;;;;;;4.22;2.25;;;692.00;921.60;;;;;;5089638;28;20048;-78
2021/06/02 11:14:16;;;;;;;4.78;2.58;;;691.70;921.60;;;;;;5088000;28;20035;-79
2021/06/02 11:16:58;;;;;;;6.10;2.85;;;666.30;972.80;;;;;;5080157;28;20116;-78
2021/06/02 11:19:28;;;;;;;5.05;2.65;;;666.20;972.80;;;;;;5080945;28;20468;-78
2021/06/02 11:21:54;;;;;;;4.78;3.20;;;666.20;998.40;;;;;;5087088;28;20108;-79
2021/06/02 11:24:35;;;;;;;4.57;2.65;;;665.90;1024.00;;;;;;5089109;28;20149;-80
2021/06/02 11:27:13;;;;;;;3.45;2.10;;;665.90;1024.00;;;;;;5082139;28;20016;-77
2021/06/02 11:29:47;;;;;;;3.10;2.58;;;666.30;972.80;;;;;;5085432;28;20024;-80
2021/06/02 11:32:18;;;;;;;5.75;2.25;;;691.90;896.00;;;;;;5081970;28;20028;-79
2021/06/02 11:34:45;;;;;;;4.13;2.42;;;717.60;870.40;;;;;;5087387;28;20120;-79
2021/06/02 11:37:13;;;;;;;3.80;2.50;;;692.10;921.60;;;;;;5087065;28;20497;-78
2021/06/02 11:39:41;;;;;;;4.40;2.92;;;691.50;921.60;;;;;;5083534;28;20032;-79
2021/06/02 11:42:08;;;;;;;6.18;2.03;;;691.90;921.60;;;;;;5091691;28;20023;-78
2021/06/02 11:44:36;;;;;;;4.65;2.90;;;717.50;870.40;;;;;;5079033;28;20381;-79
2021/06/02 11:47:03;;;;;;;5.80;2.97;;;742.90;896.00;;;;;;5085509;28;20120;-79
2021/06/02 11:49:35;;;;;;;4.40;3.10;;;743.10;870.40;;;;;;5089424;28;20032;-79
2021/06/02 11:52:09;;;;;;;4.07;2.47;;;717.50;870.40;;;;;;5086036;28;20111;-79
2021/06/02 11:54:54;;;;;;;6.40;2.70;;;691.80;896.00;;;;;;5091429;28;20529;-79
2021/06/02 11:57:26;;;;;;;3.72;2.58;;;691.40;972.80;;;;;;5085439;28;20104;-80
2021/06/02 11:59:53;;;;;;;4.35;2.58;;;691.40;921.60;;;;;;5091268;28;20077;-80
2021/06/02 12:02:19;;;;;;;4.97;2.92;;;717.30;921.60;;;;;;5086381;28;20025;-79
2021/06/02 12:04:45;;;;;;;6.55;2.53;;;716.90;921.60;;;;;;5080541;28;20091;-79
2021/06/02 12:07:26;;;;;;;3.45;2.65;;;716.80;921.60;;;;;;5077780;28;20504;-79
2021/06/02 12:09:53;;;;;;;3.53;2.42;;;717.50;870.40;;;;;;5081578;28;20039;-79
2021/06/02 12:12:19;;;;;;;5.20;2.75;;;743.20;844.80;;;;;;5085876;28;20555;-77
2021/06/02 12:14:52;;;;;;;3.20;2.30;;;768.50;844.80;;;;;;5089559;28;20405;-78
2021/06/02 12:17:18;;;;;;;4.63;2.58;;;768.40;844.80;;;;;;5086884;28;20035;-77
2021/06/02 12:19:46;;;;;;;4.15;2.60;;;768.80;793.60;;;;;;5093797;28;20392;-78
2021/06/02 12:22:19;;;;;;;5.50;2.72;;;794.10;844.80;;;;;;5094451;28;20020;-78
2021/06/02 12:25:00;;;;;;;4.55;2.70;;;794.30;819.20;;;;;;5089583;28;20028;-78
2021/06/02 12:27:25;;;;;;;3.50;2.80;;;819.90;793.60;;;;;;5075734;28;20055;-78
2021/06/02 12:30:10;;;;;;;6.50;3.28;;;819.90;768.00;;;;;;5088800;28;20052;-78
2021/06/02 12:32:46;;;;;;;8.35;3.42;;;793.70;819.20;;;;;;5082611;28;20031;-78
2021/06/02 12:35:35;;;;;;;3.50;2.38;;;743.00;870.40;;;;;;5085159;28;20020;-78
2021/06/02 12:38:20;;;;;;;6.85;2.75;;;717.50;870.40;;;;;;5093143;28;20519;-79
2021/06/02 12:40:59;;;;;;;7.50;3.05;;;717.00;896.00;;;;;;5089528;28;20074;-79
2021/06/02 12:43:32;;;;;;;9.45;3.28;;;717.20;921.60;;;;;;5090676;28;20035;-79
2021/06/02 12:46:09;;;;;;;4.32;2.70;;;691.80;921.60;;;;;;5090772;28;20020;-80
2021/06/02 12:48:35;;;;;;;5.90;3.63;;;666.40;921.60;;;;;;5088997;28;20027;-78
2021/06/02 12:51:03;;;;;;;4.13;2.42;;;666.10;947.20;;;;;;5080197;28;20078;-79
2021/06/02 12:53:36;;;;;;;4.82;2.45;;;665.80;972.80;;;;;;5088658;28;20020;-79
2021/06/02 12:56:03;;;;;;;5.00;2.70;;;665.80;972.80;;;;;;5092850;28;20115;-79
2021/06/02 12:58:31;;;;;;;5.75;2.88;;;665.70;972.80;;;;;;5086401;28;20034;-79